sensor_id;sensor_type;location;lat;lon;timestamp;temperature;humidity
33761;DHT22;20084;47.912;19.044;2023-05-10T00:00:39;10.20;99.90
33761;DHT22;20084;47.912;19.044;2023-05-10T00:03:05;10.10;99.90
33761;DHT22;20084;47.912;19.044;2023-05-10T00:05:31;10.10;99.90
33761;DHT22;20084;47.912;19.044;2023-05-10T00:07:57;10.10;99.90
33761;DHT22;20084;47.912;19.044;2023-05-10T00:10:22;10.10;99.90
33761;DHT22;20084;47.912;19.044;2023-05-10T00:12:48;10.20;99.90
33761;DHT22;20084;47.912;19.044;2023-05-10T00:15:14;10.30;99.90
33761;DHT22;20084;47.912;19.044;2023-05-10T00:17:39;10.30;99.90
33761;DHT22;20084;47.912;19.044;2023-05-10T00:20:06;10.30;99.90
33761;DHT22;20084;47.912;19.044;2023-05-10T00:22:32;10.30;99.90
33761;DHT22;20084;47.912;19.044;2023-05-10T00:24:58;10.40;99.90
33761;DHT22;20084;47.912;19.044;2023-05-10T00:27:25;10.50;99.90
33761;DHT22;20084;47.912;19.044;2023-05-10T00:29:50;10.50;99.90
33761;DHT22;20084;47.912;19.044;2023-05-10T00:32:16;10.60;99.90
33761;DHT22;20084;47.912;19.044;2023-05-10T00:34:42;10.60;99.90
33761;DHT22;20084;47.912;19.044;2023-05-10T00:37:07;10.70;99.90
33761;DHT22;20084;47.912;19.044;2023-05-10T00:39:33;10.80;99.90
33761;DHT22;20084;47.912;19.044;2023-05-10T00:41:59;10.90;99.90
33761;DHT22;20084;47.912;19.044;2023-05-10T00:44:25;10.90;99.90
33761;DHT22;20084;47.912;19.044;2023-05-10T00:46:51;10.90;99.90
33761;DHT22;20084;47.912;19.044;2023-05-10T00:49:17;10.90;99.90
33761;DHT22;20084;47.912;19.044;2023-05-10T00:51:44;10.90;99.90
33761;DHT22;20084;47.912;19.044;2023-05-10T00:54:12;10.90;99.90
33761;DHT22;20084;47.912;19.044;2023-05-10T00:56:39;10.90;99.90
33761;DHT22;20084;47.912;19.044;2023-05-10T00:59:06;10.90;99.90
33761;DHT22;20084;47.912;19.044;2023-05-10T01:01:32;10.90;99.90
33761;DHT22;20084;47.912;19.044;2023-05-10T01:03:58;10.90;99.90
33761;DHT22;20084;47.912;19.044;2023-05-10T01:06:23;11.00;99.90
33761;DHT22;20084;47.912;19.044;2023-05-10T01:08:49;11.00;99.90
33761;DHT22;20084;47.912;19.044;2023-05-10T01:11:15;11.10;99.90
33761;DHT22;20084;47.912;19.044;2023-05-10T01:13:42;11.20;99.90
33761;DHT22;20084;47.912;19.044;2023-05-10T01:16:08;11.30;99.90
33761;DHT22;20084;47.912;19.044;2023-05-10T01:18:39;11.30;99.90
33761;DHT22;20084;47.912;19.044;2023-05-10T01:40:23;11.20;99.90
33761;DHT22;20084;47.912;19.044;2023-05-10T01:42:54;11.20;99.90
33761;DHT22;20084;47.912;19.044;2023-05-10T01:48:14;11.20;99.90
33761;DHT22;20084;47.912;19.044;2023-05-10T01:50:43;11.10;99.90
33761;DHT22;20084;47.912;19.044;2023-05-10T01:53:10;11.00;99.90
33761;DHT22;20084;47.912;19.044;2023-05-10T01:55:45;11.00;99.90
33761;DHT22;20084;47.912;19.044;2023-05-10T01:58:23;11.00;99.90
33761;DHT22;20084;47.912;19.044;2023-05-10T02:00:52;11.00;99.90
33761;DHT22;20084;47.912;19.044;2023-05-10T02:03:20;11.00;99.90
33761;DHT22;20084;47.912;19.044;2023-05-10T02:05:48;10.90;99.90
33761;DHT22;20084;47.912;19.044;2023-05-10T02:08:16;10.90;99.90
33761;DHT22;20084;47.912;19.044;2023-05-10T02:10:43;10.90;99.90
33761;DHT22;20084;47.912;19.044;2023-05-10T02:13:10;10.80;99.90
33761;DHT22;20084;47.912;19.044;2023-05-10T02:15:37;10.80;99.90
33761;DHT22;20084;47.912;19.044;2023-05-10T02:18:05;10.80;99.90
33761;DHT22;20084;47.912;19.044;2023-05-10T02:20:32;10.80;99.90
33761;DHT22;20084;47.912;19.044;2023-05-10T02:22:58;10.70;99.90
33761;DHT22;20084;47.912;19.044;2023-05-10T02:25:25;10.70;99.90
33761;DHT22;20084;47.912;19.044;2023-05-10T02:27:54;10.60;99.90
33761;DHT22;20084;47.912;19.044;2023-05-10T02:30:21;10.60;99.90
33761;DHT22;20084;47.912;19.044;2023-05-10T02:32:49;10.50;99.90
33761;DHT22;20084;47.912;19.044;2023-05-10T02:35:16;10.50;99.90
33761;DHT22;20084;47.912;19.044;2023-05-10T02:37:43;10.50;99.90
33761;DHT22;20084;47.912;19.044;2023-05-10T02:40:10;10.40;99.90
33761;DHT22;20084;47.912;19.044;2023-05-10T02:42:37;10.40;99.90
33761;DHT22;20084;47.912;19.044;2023-05-10T02:45:17;10.40;99.90
33761;DHT22;20084;47.912;19.044;2023-05-10T02:47:43;10.40;99.90
33761;DHT22;20084;47.912;19.044;2023-05-10T02:50:09;10.40;99.90
33761;DHT22;20084;47.912;19.044;2023-05-10T02:52:47;10.40;99.90
33761;DHT22;20084;47.912;19.044;2023-05-10T02:55:15;10.40;99.90
33761;DHT22;20084;47.912;19.044;2023-05-10T02:57:57;10.40;99.90
33761;DHT22;20084;47.912;19.044;2023-05-10T03:00:24;10.40;99.90
33761;DHT22;20084;47.912;19.044;2023-05-10T03:02:50;10.30;99.90
33761;DHT22;20084;47.912;19.044;2023-05-10T03:05:16;10.30;99.90
33761;DHT22;20084;47.912;19.044;2023-05-10T03:07:42;10.20;99.90
33761;DHT22;20084;47.912;19.044;2023-05-10T03:10:09;10.20;99.90
33761;DHT22;20084;47.912;19.044;2023-05-10T03:12:59;10.20;99.90
33761;DHT22;20084;47.912;19.044;2023-05-10T03:18:01;10.30;99.90
33761;DHT22;20084;47.912;19.044;2023-05-10T03:20:41;10.30;99.90
33761;DHT22;20084;47.912;19.044;2023-05-10T03:25:43;10.30;99.90
33761;DHT22;20084;47.912;19.044;2023-05-10T03:28:09;10.40;99.90
33761;DHT22;20084;47.912;19.044;2023-05-10T03:30:35;10.40;99.90
33761;DHT22;20084;47.912;19.044;2023-05-10T03:33:07;10.50;99.90
33761;DHT22;20084;47.912;19.044;2023-05-10T03:35:33;10.60;99.90
33761;DHT22;20084;47.912;19.044;2023-05-10T03:37:59;10.60;99.90
33761;DHT22;20084;47.912;19.044;2023-05-10T03:40:26;10.70;99.90
33761;DHT22;20084;47.912;19.044;2023-05-10T03:42:54;10.80;99.90
33761;DHT22;20084;47.912;19.044;2023-05-10T03:45:20;10.80;99.90
33761;DHT22;20084;47.912;19.044;2023-05-10T03:47:46;10.90;99.90
33761;DHT22;20084;47.912;19.044;2023-05-10T03:50:12;10.90;99.90
33761;DHT22;20084;47.912;19.044;2023-05-10T03:52:37;11.00;99.90
33761;DHT22;20084;47.912;19.044;2023-05-10T03:55:05;11.00;99.90
33761;DHT22;20084;47.912;19.044;2023-05-10T03:57:31;11.00;99.90
33761;DHT22;20084;47.912;19.044;2023-05-10T03:59:56;11.00;99.90
33761;DHT22;20084;47.912;19.044;2023-05-10T04:02:22;11.00;99.90
33761;DHT22;20084;47.912;19.044;2023-05-10T04:04:47;10.90;99.90
33761;DHT22;20084;47.912;19.044;2023-05-10T04:07:13;10.90;99.90
33761;DHT22;20084;47.912;19.044;2023-05-10T04:09:39;11.00;99.90
33761;DHT22;20084;47.912;19.044;2023-05-10T04:12:05;11.00;99.90
33761;DHT22;20084;47.912;19.044;2023-05-10T04:14:31;11.10;99.90
33761;DHT22;20084;47.912;19.044;2023-05-10T04:16:57;11.10;99.90
33761;DHT22;20084;47.912;19.044;2023-05-10T04:19:22;11.20;99.90
33761;DHT22;20084;47.912;19.044;2023-05-10T04:21:48;11.20;99.90
33761;DHT22;20084;47.912;19.044;2023-05-10T04:24:14;11.20;99.90
33761;DHT22;20084;47.912;19.044;2023-05-10T04:26:40;11.20;99.90
33761;DHT22;20084;47.912;19.044;2023-05-10T04:29:06;11.20;99.90
33761;DHT22;20084;47.912;19.044;2023-05-10T04:31:32;11.30;99.90
33761;DHT22;20084;47.912;19.044;2023-05-10T04:33:57;11.30;99.90
33761;DHT22;20084;47.912;19.044;2023-05-10T04:36:23;11.40;99.90
33761;DHT22;20084;47.912;19.044;2023-05-10T04:38:49;11.40;99.90
33761;DHT22;20084;47.912;19.044;2023-05-10T04:41:14;11.40;99.90
33761;DHT22;20084;47.912;19.044;2023-05-10T04:43:40;11.40;99.90
33761;DHT22;20084;47.912;19.044;2023-05-10T04:46:06;11.50;99.90
33761;DHT22;20084;47.912;19.044;2023-05-10T04:48:32;11.50;99.90
33761;DHT22;20084;47.912;19.044;2023-05-10T04:50:58;11.60;99.90
33761;DHT22;20084;47.912;19.044;2023-05-10T04:53:24;11.60;99.90
33761;DHT22;20084;47.912;19.044;2023-05-10T04:55:50;11.60;99.90
33761;DHT22;20084;47.912;19.044;2023-05-10T04:58:15;11.70;99.90
33761;DHT22;20084;47.912;19.044;2023-05-10T05:00:41;11.70;99.90
33761;DHT22;20084;47.912;19.044;2023-05-10T05:03:07;11.70;99.90
33761;DHT22;20084;47.912;19.044;2023-05-10T05:05:33;11.80;99.90
33761;DHT22;20084;47.912;19.044;2023-05-10T05:07:58;11.90;99.90
33761;DHT22;20084;47.912;19.044;2023-05-10T05:10:24;12.10;99.90
33761;DHT22;20084;47.912;19.044;2023-05-10T05:12:50;12.10;99.90
33761;DHT22;20084;47.912;19.044;2023-05-10T05:15:16;12.20;99.90
33761;DHT22;20084;47.912;19.044;2023-05-10T05:17:42;12.20;99.90
33761;DHT22;20084;47.912;19.044;2023-05-10T05:20:09;12.30;99.90
33761;DHT22;20084;47.912;19.044;2023-05-10T05:22:36;12.40;99.90
33761;DHT22;20084;47.912;19.044;2023-05-10T05:25:02;12.40;99.90
33761;DHT22;20084;47.912;19.044;2023-05-10T05:27:29;12.50;99.90
33761;DHT22;20084;47.912;19.044;2023-05-10T05:29:58;12.50;99.90
33761;DHT22;20084;47.912;19.044;2023-05-10T05:32:24;12.50;99.90
33761;DHT22;20084;47.912;19.044;2023-05-10T05:34:50;12.60;99.90
33761;DHT22;20084;47.912;19.044;2023-05-10T05:37:20;12.70;99.90
33761;DHT22;20084;47.912;19.044;2023-05-10T05:39:46;12.70;99.90
33761;DHT22;20084;47.912;19.044;2023-05-10T05:42:12;12.70;99.90
33761;DHT22;20084;47.912;19.044;2023-05-10T05:44:39;12.70;99.90
33761;DHT22;20084;47.912;19.044;2023-05-10T05:47:05;12.80;99.90
33761;DHT22;20084;47.912;19.044;2023-05-10T05:49:31;12.80;99.90
33761;DHT22;20084;47.912;19.044;2023-05-10T05:52:00;12.90;99.90
33761;DHT22;20084;47.912;19.044;2023-05-10T05:54:27;13.00;99.90
33761;DHT22;20084;47.912;19.044;2023-05-10T05:56:57;13.10;99.90
33761;DHT22;20084;47.912;19.044;2023-05-10T05:59:23;13.20;99.90
33761;DHT22;20084;47.912;19.044;2023-05-10T06:01:49;13.20;99.90
33761;DHT22;20084;47.912;19.044;2023-05-10T06:04:15;13.30;99.90
33761;DHT22;20084;47.912;19.044;2023-05-10T06:06:41;13.30;99.90
33761;DHT22;20084;47.912;19.044;2023-05-10T06:09:07;13.30;99.90
33761;DHT22;20084;47.912;19.044;2023-05-10T06:11:34;13.50;99.90
33761;DHT22;20084;47.912;19.044;2023-05-10T06:14:00;13.70;99.90
33761;DHT22;20084;47.912;19.044;2023-05-10T06:16:26;13.80;99.90
33761;DHT22;20084;47.912;19.044;2023-05-10T06:18:51;13.80;99.90
33761;DHT22;20084;47.912;19.044;2023-05-10T06:21:17;13.90;99.90
33761;DHT22;20084;47.912;19.044;2023-05-10T06:23:43;14.00;99.90
33761;DHT22;20084;47.912;19.044;2023-05-10T06:26:09;14.10;99.90
33761;DHT22;20084;47.912;19.044;2023-05-10T06:28:35;14.00;99.90
33761;DHT22;20084;47.912;19.044;2023-05-10T06:31:03;14.00;99.90
33761;DHT22;20084;47.912;19.044;2023-05-10T06:33:29;14.10;99.90
33761;DHT22;20084;47.912;19.044;2023-05-10T06:35:55;14.20;99.90
33761;DHT22;20084;47.912;19.044;2023-05-10T06:38:21;14.40;99.90
33761;DHT22;20084;47.912;19.044;2023-05-10T06:40:47;14.50;99.90
33761;DHT22;20084;47.912;19.044;2023-05-10T06:43:12;14.50;99.90
33761;DHT22;20084;47.912;19.044;2023-05-10T06:45:38;14.70;99.90
33761;DHT22;20084;47.912;19.044;2023-05-10T06:48:04;14.80;99.90
33761;DHT22;20084;47.912;19.044;2023-05-10T06:50:29;15.00;99.90
33761;DHT22;20084;47.912;19.044;2023-05-10T06:52:55;15.00;99.90
33761;DHT22;20084;47.912;19.044;2023-05-10T06:55:21;15.00;99.90
33761;DHT22;20084;47.912;19.044;2023-05-10T06:57:47;15.10;99.90
33761;DHT22;20084;47.912;19.044;2023-05-10T07:00:13;15.00;99.90
33761;DHT22;20084;47.912;19.044;2023-05-10T07:02:39;14.90;99.90
33761;DHT22;20084;47.912;19.044;2023-05-10T07:05:05;14.70;99.90
33761;DHT22;20084;47.912;19.044;2023-05-10T07:07:31;14.60;99.90
33761;DHT22;20084;47.912;19.044;2023-05-10T07:09:57;14.60;99.90
33761;DHT22;20084;47.912;19.044;2023-05-10T07:12:23;14.70;99.90
33761;DHT22;20084;47.912;19.044;2023-05-10T07:14:49;14.70;99.90
33761;DHT22;20084;47.912;19.044;2023-05-10T07:17:15;14.70;99.90
33761;DHT22;20084;47.912;19.044;2023-05-10T07:19:40;14.90;99.90
33761;DHT22;20084;47.912;19.044;2023-05-10T07:22:06;14.90;99.90
33761;DHT22;20084;47.912;19.044;2023-05-10T07:24:32;15.00;99.90
33761;DHT22;20084;47.912;19.044;2023-05-10T07:26:58;15.00;99.90
33761;DHT22;20084;47.912;19.044;2023-05-10T07:29:24;15.10;99.90
33761;DHT22;20084;47.912;19.044;2023-05-10T07:31:50;15.10;99.90
33761;DHT22;20084;47.912;19.044;2023-05-10T07:34:15;15.30;99.90
33761;DHT22;20084;47.912;19.044;2023-05-10T07:36:41;15.50;99.90
33761;DHT22;20084;47.912;19.044;2023-05-10T07:39:07;15.60;99.90
33761;DHT22;20084;47.912;19.044;2023-05-10T07:41:33;15.60;99.90
33761;DHT22;20084;47.912;19.044;2023-05-10T07:43:58;15.40;99.90
33761;DHT22;20084;47.912;19.044;2023-05-10T07:46:24;15.20;99.90
33761;DHT22;20084;47.912;19.044;2023-05-10T07:48:49;15.00;99.90
33761;DHT22;20084;47.912;19.044;2023-05-10T07:51:15;15.00;99.90
33761;DHT22;20084;47.912;19.044;2023-05-10T07:53:41;15.20;99.90
33761;DHT22;20084;47.912;19.044;2023-05-10T07:56:24;15.30;99.90
33761;DHT22;20084;47.912;19.044;2023-05-10T07:58:51;15.30;99.90
33761;DHT22;20084;47.912;19.044;2023-05-10T08:01:17;15.50;99.90
33761;DHT22;20084;47.912;19.044;2023-05-10T08:03:43;15.70;99.90
33761;DHT22;20084;47.912;19.044;2023-05-10T08:06:09;15.70;99.90
33761;DHT22;20084;47.912;19.044;2023-05-10T08:08:34;15.60;99.90
33761;DHT22;20084;47.912;19.044;2023-05-10T08:11:00;15.40;99.90
33761;DHT22;20084;47.912;19.044;2023-05-10T08:13:25;15.40;99.90
33761;DHT22;20084;47.912;19.044;2023-05-10T08:15:51;15.20;99.90
33761;DHT22;20084;47.912;19.044;2023-05-10T08:18:18;15.20;99.90
33761;DHT22;20084;47.912;19.044;2023-05-10T08:20:44;15.10;99.90
33761;DHT22;20084;47.912;19.044;2023-05-10T08:23:11;15.10;99.90
33761;DHT22;20084;47.912;19.044;2023-05-10T08:25:37;15.10;99.90
33761;DHT22;20084;47.912;19.044;2023-05-10T08:28:03;15.10;99.90
33761;DHT22;20084;47.912;19.044;2023-05-10T08:30:28;15.10;99.90
33761;DHT22;20084;47.912;19.044;2023-05-10T08:32:54;15.00;99.90
33761;DHT22;20084;47.912;19.044;2023-05-10T08:35:20;15.00;99.90
33761;DHT22;20084;47.912;19.044;2023-05-10T08:37:46;14.90;99.90
33761;DHT22;20084;47.912;19.044;2023-05-10T08:40:11;15.00;99.90
33761;DHT22;20084;47.912;19.044;2023-05-10T08:42:40;15.00;99.90
33761;DHT22;20084;47.912;19.044;2023-05-10T08:45:10;15.00;99.90
33761;DHT22;20084;47.912;19.044;2023-05-10T08:47:37;15.00;99.90
33761;DHT22;20084;47.912;19.044;2023-05-10T08:50:04;15.10;99.90
33761;DHT22;20084;47.912;19.044;2023-05-10T08:52:30;15.20;99.90
33761;DHT22;20084;47.912;19.044;2023-05-10T08:54:58;15.40;99.90
33761;DHT22;20084;47.912;19.044;2023-05-10T08:57:23;15.60;99.90
33761;DHT22;20084;47.912;19.044;2023-05-10T08:59:50;15.70;99.90
33761;DHT22;20084;47.912;19.044;2023-05-10T09:02:17;15.70;99.90
33761;DHT22;20084;47.912;19.044;2023-05-10T09:04:43;15.70;99.90
33761;DHT22;20084;47.912;19.044;2023-05-10T09:07:10;15.90;99.90
33761;DHT22;20084;47.912;19.044;2023-05-10T09:09:36;16.00;99.90
33761;DHT22;20084;47.912;19.044;2023-05-10T09:12:02;15.90;99.90
33761;DHT22;20084;47.912;19.044;2023-05-10T09:14:29;15.80;99.90
33761;DHT22;20084;47.912;19.044;2023-05-10T09:16:56;15.70;99.90
33761;DHT22;20084;47.912;19.044;2023-05-10T09:19:22;15.60;99.90
33761;DHT22;20084;47.912;19.044;2023-05-10T09:21:49;15.60;99.90
33761;DHT22;20084;47.912;19.044;2023-05-10T09:24:15;15.60;99.90
33761;DHT22;20084;47.912;19.044;2023-05-10T09:26:47;15.70;99.90
33761;DHT22;20084;47.912;19.044;2023-05-10T09:29:17;15.60;99.90
33761;DHT22;20084;47.912;19.044;2023-05-10T09:31:44;15.70;99.90
33761;DHT22;20084;47.912;19.044;2023-05-10T09:34:16;15.80;99.90
33761;DHT22;20084;47.912;19.044;2023-05-10T09:36:57;15.90;99.90
33761;DHT22;20084;47.912;19.044;2023-05-10T09:39:43;15.80;99.90
33761;DHT22;20084;47.912;19.044;2023-05-10T09:42:10;15.80;99.90
33761;DHT22;20084;47.912;19.044;2023-05-10T09:44:36;15.70;99.90
33761;DHT22;20084;47.912;19.044;2023-05-10T09:47:02;15.80;99.90
33761;DHT22;20084;47.912;19.044;2023-05-10T09:49:28;15.80;99.90
33761;DHT22;20084;47.912;19.044;2023-05-10T09:52:05;15.90;99.90
33761;DHT22;20084;47.912;19.044;2023-05-10T09:54:31;16.10;99.90
33761;DHT22;20084;47.912;19.044;2023-05-10T09:56:57;16.10;99.90
33761;DHT22;20084;47.912;19.044;2023-05-10T09:59:25;16.10;99.90
33761;DHT22;20084;47.912;19.044;2023-05-10T10:01:52;16.10;99.90
33761;DHT22;20084;47.912;19.044;2023-05-10T10:04:20;16.10;99.90
33761;DHT22;20084;47.912;19.044;2023-05-10T10:06:46;16.20;99.90
33761;DHT22;20084;47.912;19.044;2023-05-10T10:09:23;16.40;99.90
33761;DHT22;20084;47.912;19.044;2023-05-10T10:11:49;16.50;99.90
33761;DHT22;20084;47.912;19.044;2023-05-10T10:14:18;16.60;99.90
33761;DHT22;20084;47.912;19.044;2023-05-10T10:16:44;16.70;99.90
33761;DHT22;20084;47.912;19.044;2023-05-10T10:19:10;16.80;99.90
33761;DHT22;20084;47.912;19.044;2023-05-10T10:21:36;16.70;99.90
33761;DHT22;20084;47.912;19.044;2023-05-10T10:24:01;16.60;99.90
33761;DHT22;20084;47.912;19.044;2023-05-10T10:26:30;16.70;99.90
33761;DHT22;20084;47.912;19.044;2023-05-10T10:29:23;16.70;99.90
33761;DHT22;20084;47.912;19.044;2023-05-10T10:31:57;16.90;99.90
33761;DHT22;20084;47.912;19.044;2023-05-10T10:34:29;16.90;99.90
33761;DHT22;20084;47.912;19.044;2023-05-10T10:36:56;16.90;99.90
33761;DHT22;20084;47.912;19.044;2023-05-10T10:39:23;16.90;99.90
33761;DHT22;20084;47.912;19.044;2023-05-10T10:41:57;17.00;99.90
33761;DHT22;20084;47.912;19.044;2023-05-10T10:47:07;16.90;99.90
33761;DHT22;20084;47.912;19.044;2023-05-10T10:52:42;17.20;99.90
33761;DHT22;20084;47.912;19.044;2023-05-10T10:55:08;17.30;99.90
33761;DHT22;20084;47.912;19.044;2023-05-10T11:03:10;17.20;99.90
33761;DHT22;20084;47.912;19.044;2023-05-10T11:05:49;17.20;99.90
33761;DHT22;20084;47.912;19.044;2023-05-10T11:08:18;17.30;99.90
33761;DHT22;20084;47.912;19.044;2023-05-10T11:11:16;17.40;99.90
33761;DHT22;20084;47.912;19.044;2023-05-10T11:13:46;17.40;99.90
33761;DHT22;20084;47.912;19.044;2023-05-10T11:16:24;17.50;99.90
33761;DHT22;20084;47.912;19.044;2023-05-10T11:19:02;17.60;99.90
33761;DHT22;20084;47.912;19.044;2023-05-10T11:21:32;17.70;99.90
33761;DHT22;20084;47.912;19.044;2023-05-10T11:23:59;17.70;99.90
33761;DHT22;20084;47.912;19.044;2023-05-10T11:26:30;17.70;99.90
33761;DHT22;20084;47.912;19.044;2023-05-10T11:28:56;17.60;99.90
33761;DHT22;20084;47.912;19.044;2023-05-10T11:31:23;17.50;99.90
33761;DHT22;20084;47.912;19.044;2023-05-10T11:33:56;17.50;99.90
33761;DHT22;20084;47.912;19.044;2023-05-10T11:36:26;17.50;99.90
33761;DHT22;20084;47.912;19.044;2023-05-10T11:38:53;17.70;99.90
33761;DHT22;20084;47.912;19.044;2023-05-10T11:41:20;17.70;99.90
33761;DHT22;20084;47.912;19.044;2023-05-10T11:43:49;17.70;99.90
33761;DHT22;20084;47.912;19.044;2023-05-10T11:46:18;17.80;99.90
33761;DHT22;20084;47.912;19.044;2023-05-10T11:48:46;17.70;99.50
33761;DHT22;20084;47.912;19.044;2023-05-10T11:51:12;17.70;98.80
33761;DHT22;20084;47.912;19.044;2023-05-10T11:53:37;17.70;99.10
33761;DHT22;20084;47.912;19.044;2023-05-10T11:56:08;17.80;98.30
33761;DHT22;20084;47.912;19.044;2023-05-10T11:58:34;17.80;98.20
33761;DHT22;20084;47.912;19.044;2023-05-10T12:01:01;17.70;97.90
33761;DHT22;20084;47.912;19.044;2023-05-10T12:03:28;17.70;99.80
33761;DHT22;20084;47.912;19.044;2023-05-10T12:05:54;17.70;99.40
33761;DHT22;20084;47.912;19.044;2023-05-10T12:08:23;17.60;99.00
33761;DHT22;20084;47.912;19.044;2023-05-10T12:10:49;17.70;98.20
33761;DHT22;20084;47.912;19.044;2023-05-10T12:13:15;17.60;97.90
33761;DHT22;20084;47.912;19.044;2023-05-10T12:15:41;17.70;98.30
33761;DHT22;20084;47.912;19.044;2023-05-10T12:18:12;17.70;97.10
33761;DHT22;20084;47.912;19.044;2023-05-10T12:20:38;17.80;98.80
33761;DHT22;20084;47.912;19.044;2023-05-10T12:23:04;17.80;97.70
33761;DHT22;20084;47.912;19.044;2023-05-10T12:25:32;17.80;98.10
33761;DHT22;20084;47.912;19.044;2023-05-10T12:27:59;17.90;98.20
33761;DHT22;20084;47.912;19.044;2023-05-10T12:30:32;18.00;97.90
33761;DHT22;20084;47.912;19.044;2023-05-10T12:33:02;18.00;97.40
33761;DHT22;20084;47.912;19.044;2023-05-10T12:35:33;18.20;97.80
33761;DHT22;20084;47.912;19.044;2023-05-10T12:37:59;18.30;96.40
33761;DHT22;20084;47.912;19.044;2023-05-10T12:40:25;18.30;96.30
33761;DHT22;20084;47.912;19.044;2023-05-10T12:42:51;18.40;98.30
33761;DHT22;20084;47.912;19.044;2023-05-10T12:45:18;18.50;96.60
33761;DHT22;20084;47.912;19.044;2023-05-10T12:47:44;18.40;96.40
33761;DHT22;20084;47.912;19.044;2023-05-10T12:50:10;18.20;95.70
33761;DHT22;20084;47.912;19.044;2023-05-10T12:52:36;18.30;96.00
33761;DHT22;20084;47.912;19.044;2023-05-10T12:55:02;18.50;96.10
33761;DHT22;20084;47.912;19.044;2023-05-10T12:57:28;18.50;95.70
33761;DHT22;20084;47.912;19.044;2023-05-10T12:59:54;18.30;95.90
33761;DHT22;20084;47.912;19.044;2023-05-10T13:02:21;18.30;95.50
33761;DHT22;20084;47.912;19.044;2023-05-10T13:04:48;18.40;94.70
33761;DHT22;20084;47.912;19.044;2023-05-10T13:07:14;18.40;94.40
33761;DHT22;20084;47.912;19.044;2023-05-10T13:09:40;18.40;94.90
33761;DHT22;20084;47.912;19.044;2023-05-10T13:12:06;18.50;94.60
33761;DHT22;20084;47.912;19.044;2023-05-10T13:14:31;18.50;94.70
33761;DHT22;20084;47.912;19.044;2023-05-10T13:16:57;18.40;94.10
33761;DHT22;20084;47.912;19.044;2023-05-10T13:19:23;18.50;94.10
33761;DHT22;20084;47.912;19.044;2023-05-10T13:21:48;18.60;92.60
33761;DHT22;20084;47.912;19.044;2023-05-10T13:24:14;18.60;92.00
33761;DHT22;20084;47.912;19.044;2023-05-10T13:26:40;18.70;91.90
33761;DHT22;20084;47.912;19.044;2023-05-10T13:29:06;18.70;92.00
33761;DHT22;20084;47.912;19.044;2023-05-10T13:31:33;18.60;91.30
33761;DHT22;20084;47.912;19.044;2023-05-10T13:33:58;18.50;91.90
33761;DHT22;20084;47.912;19.044;2023-05-10T13:36:24;18.40;92.70
33761;DHT22;20084;47.912;19.044;2023-05-10T13:38:49;18.40;92.70
33761;DHT22;20084;47.912;19.044;2023-05-10T13:41:15;18.40;92.90
33761;DHT22;20084;47.912;19.044;2023-05-10T13:43:41;18.40;93.30
33761;DHT22;20084;47.912;19.044;2023-05-10T13:46:06;18.40;93.10
33761;DHT22;20084;47.912;19.044;2023-05-10T13:48:32;18.50;94.00
33761;DHT22;20084;47.912;19.044;2023-05-10T13:50:58;18.50;92.90
33761;DHT22;20084;47.912;19.044;2023-05-10T13:53:23;18.50;92.40
33761;DHT22;20084;47.912;19.044;2023-05-10T13:55:49;18.40;92.70
33761;DHT22;20084;47.912;19.044;2023-05-10T13:58:15;18.40;93.00
33761;DHT22;20084;47.912;19.044;2023-05-10T14:00:40;18.30;92.80
33761;DHT22;20084;47.912;19.044;2023-05-10T14:03:06;18.30;92.30
33761;DHT22;20084;47.912;19.044;2023-05-10T14:05:34;18.20;92.90
33761;DHT22;20084;47.912;19.044;2023-05-10T14:07:59;18.20;93.20
33761;DHT22;20084;47.912;19.044;2023-05-10T14:10:25;18.30;92.80
33761;DHT22;20084;47.912;19.044;2023-05-10T14:12:51;18.30;92.10
33761;DHT22;20084;47.912;19.044;2023-05-10T14:15:17;18.30;91.90
33761;DHT22;20084;47.912;19.044;2023-05-10T14:17:42;18.30;92.50
33761;DHT22;20084;47.912;19.044;2023-05-10T14:20:08;18.40;93.30
33761;DHT22;20084;47.912;19.044;2023-05-10T14:22:34;18.50;93.20
33761;DHT22;20084;47.912;19.044;2023-05-10T14:25:00;18.50;93.40
33761;DHT22;20084;47.912;19.044;2023-05-10T14:27:26;18.60;93.00
33761;DHT22;20084;47.912;19.044;2023-05-10T14:29:52;18.60;92.80
33761;DHT22;20084;47.912;19.044;2023-05-10T14:32:18;18.50;92.30
33761;DHT22;20084;47.912;19.044;2023-05-10T14:34:44;18.40;92.90
33761;DHT22;20084;47.912;19.044;2023-05-10T14:37:11;18.40;93.60
33761;DHT22;20084;47.912;19.044;2023-05-10T14:39:37;18.50;92.70
33761;DHT22;20084;47.912;19.044;2023-05-10T14:42:03;18.40;92.60
33761;DHT22;20084;47.912;19.044;2023-05-10T14:44:29;18.50;93.10
33761;DHT22;20084;47.912;19.044;2023-05-10T14:46:54;18.50;93.60
33761;DHT22;20084;47.912;19.044;2023-05-10T14:49:22;18.60;92.30
33761;DHT22;20084;47.912;19.044;2023-05-10T14:51:48;18.70;92.70
33761;DHT22;20084;47.912;19.044;2023-05-10T14:54:13;18.80;92.10
33761;DHT22;20084;47.912;19.044;2023-05-10T14:56:39;18.80;91.80
33761;DHT22;20084;47.912;19.044;2023-05-10T14:59:07;18.70;91.30
33761;DHT22;20084;47.912;19.044;2023-05-10T15:01:32;18.70;91.60
33761;DHT22;20084;47.912;19.044;2023-05-10T15:04:00;18.60;92.40
33761;DHT22;20084;47.912;19.044;2023-05-10T15:06:35;18.40;92.60
33761;DHT22;20084;47.912;19.044;2023-05-10T15:09:01;18.30;93.10
33761;DHT22;20084;47.912;19.044;2023-05-10T15:11:28;18.20;93.20
33761;DHT22;20084;47.912;19.044;2023-05-10T15:13:54;18.10;93.50
33761;DHT22;20084;47.912;19.044;2023-05-10T15:16:20;17.90;93.80
33761;DHT22;20084;47.912;19.044;2023-05-10T15:18:46;17.80;94.90
33761;DHT22;20084;47.912;19.044;2023-05-10T15:21:12;17.70;95.20
33761;DHT22;20084;47.912;19.044;2023-05-10T15:23:38;17.60;95.00
33761;DHT22;20084;47.912;19.044;2023-05-10T15:26:03;17.60;95.20
33761;DHT22;20084;47.912;19.044;2023-05-10T15:28:29;17.60;95.20
33761;DHT22;20084;47.912;19.044;2023-05-10T15:30:58;17.60;95.40
33761;DHT22;20084;47.912;19.044;2023-05-10T15:33:23;17.60;95.00
33761;DHT22;20084;47.912;19.044;2023-05-10T15:35:50;17.50;95.50
33761;DHT22;20084;47.912;19.044;2023-05-10T15:38:15;17.40;95.20
33761;DHT22;20084;47.912;19.044;2023-05-10T15:40:41;17.40;95.30
33761;DHT22;20084;47.912;19.044;2023-05-10T15:43:07;17.40;94.90
33761;DHT22;20084;47.912;19.044;2023-05-10T15:45:32;17.50;95.50
33761;DHT22;20084;47.912;19.044;2023-05-10T15:47:58;17.50;94.30
33761;DHT22;20084;47.912;19.044;2023-05-10T15:50:27;17.60;94.10
33761;DHT22;20084;47.912;19.044;2023-05-10T15:52:52;17.60;94.20